Time;durP1;ratioP1;P1;durP2;ratioP2;P2;SDS_P1;SDS_P2;PMS_P1;PMS_P2;Temp;Humidity;BMP_temperature;BMP_pressure;BME280_temperature;BME280_humidity;BME280_pressure;Samples;Min_cycle;Max_cycle;Signal;HPM_P1;HPM_P2
2021/01/01 11:05:47;;;;;;;;;;;4.30;99.90;;;;;;4769411;30;20410;-72
2021/01/01 11:08:13;;;;;;;;;;;4.30;99.90;;;;;;4772210;30;19922;-72
2021/01/01 11:10:38;;;;;;;;;;;4.20;99.90;;;;;;4772204;30;19926;-72
2021/01/01 11:13:05;;;;;;;;;;;4.20;99.90;;;;;;4772094;30;19921;-72
2021/01/01 12:27:09;;;;;;;;;;;4.80;99.90;;;;;;4734710;30;19968;-71
2021/01/01 12:29:34;;;;;;;;;;;4.70;99.90;;;;;;4774910;30;19980;-72
2021/01/01 12:32:00;;;;;;;;;;;4.80;99.90;;;;;;4774639;30;19925;-71
2021/01/01 12:34:26;;;;;;;;;;;4.70;99.90;;;;;;4774649;30;19929;-71
2021/01/01 12:36:52;;;;;;;;;;;4.70;99.90;;;;;;4774566;30;19925;-71
2021/01/01 12:39:17;;;;;;;;;;;4.80;99.90;;;;;;4774743;30;20275;-71
2021/01/01 12:41:43;;;;;;;;;;;4.80;99.90;;;;;;4774786;30;20331;-71
2021/01/01 12:44:09;;;;;;;;;;;4.70;99.90;;;;;;4766451;30;20006;-71
2021/01/01 12:46:34;;;;;;;;;;;4.90;99.90;;;;;;4774441;30;19922;-71
2021/01/01 12:49:00;;;;;;;;;;;5.00;99.90;;;;;;4774286;30;19926;-71
2021/01/01 12:51:26;;;;;;;;;;;5.00;99.90;;;;;;4771117;30;19961;-71
2021/01/01 12:53:51;;;;;;;;;;;5.00;99.90;;;;;;4774496;30;19948;-71
2021/01/01 12:56:17;;;;;;;;;;;5.00;99.90;;;;;;4774214;30;19929;-71
2021/01/01 12:58:43;;;;;;;;;;;4.90;99.90;;;;;;4773182;30;19930;-71
2021/01/01 13:01:08;;;;;;;;;;;4.90;99.90;;;;;;4747847;30;20638;-71
2021/01/01 13:03:34;;;;;;;;;;;4.90;99.90;;;;;;4763843;30;19987;-71
2021/01/01 13:06:02;;;;;;;;;;;4.80;99.90;;;;;;4776401;30;20017;-71
2021/01/01 13:08:34;;;;;;;;;;;4.80;99.90;;;;;;4751609;30;19932;-71
2021/01/01 13:10:59;;;;;;;;;;;4.90;99.90;;;;;;4772248;30;19921;-71
2021/01/01 13:13:28;;;;;;;;;;;4.90;99.90;;;;;;4772551;30;19922;-71
2021/01/01 13:15:54;;;;;;;;;;;4.90;99.90;;;;;;4763007;30;19925;-71
2021/01/01 13:18:19;;;;;;;;;;;4.80;99.90;;;;;;4759787;30;20008;-72
2021/01/01 13:20:45;;;;;;;;;;;4.80;99.90;;;;;;4753146;30;19925;-71
2021/01/01 13:23:11;;;;;;;;;;;4.80;99.90;;;;;;4763695;30;19922;-71
2021/01/01 13:25:37;;;;;;;;;;;4.70;99.90;;;;;;4747987;30;19918;-71
2021/01/01 13:28:03;;;;;;;;;;;4.70;99.90;;;;;;4765844;30;19921;-71
2021/01/01 13:30:28;;;;;;;;;;;4.80;99.90;;;;;;4766170;30;20349;-71
2021/01/01 13:32:55;;;;;;;;;;;4.80;99.90;;;;;;4752798;30;19925;-71
2021/01/01 13:35:21;;;;;;;;;;;4.70;99.90;;;;;;4770278;30;20051;-71
2021/01/01 13:37:47;;;;;;;;;;;4.70;99.90;;;;;;4746669;30;20000;-72
2021/01/01 13:40:15;;;;;;;;;;;4.80;99.90;;;;;;4770807;30;19926;-72
2021/01/01 13:42:41;;;;;;;;;;;4.90;99.90;;;;;;4739872;30;19937;-72
2021/01/01 13:45:07;;;;;;;;;;;4.90;99.90;;;;;;4756701;30;19922;-72
2021/01/01 13:47:33;;;;;;;;;;;5.10;99.90;;;;;;4754973;30;20314;-72
2021/01/01 13:49:58;;;;;;;;;;;5.00;99.90;;;;;;4754709;30;19970;-72
2021/01/01 13:52:24;;;;;;;;;;;5.10;99.90;;;;;;4739844;30;19975;-72
2021/01/01 13:54:50;;;;;;;;;;;5.20;99.90;;;;;;4755355;30;20383;-72
2021/01/01 13:57:15;;;;;;;;;;;5.10;99.90;;;;;;4755581;30;19923;-72
2021/01/01 13:59:41;;;;;;;;;;;5.00;99.90;;;;;;4739598;30;19922;-72
2021/01/01 14:02:07;;;;;;;;;;;5.00;99.90;;;;;;4739603;30;19979;-72
2021/01/01 14:04:33;;;;;;;;;;;4.90;99.90;;;;;;4755212;30;19923;-72
2021/01/01 14:06:59;;;;;;;;;;;4.80;99.90;;;;;;4739657;30;19929;-72
2021/01/01 14:09:27;;;;;;;;;;;4.90;99.90;;;;;;4755578;30;20344;-72
2021/01/01 14:11:53;;;;;;;;;;;5.00;99.90;;;;;;4755346;30;19922;-71
2021/01/01 14:14:18;;;;;;;;;;;5.10;99.90;;;;;;4739364;30;20264;-72
2021/01/01 14:16:50;;;;;;;;;;;5.00;99.90;;;;;;4755406;30;20456;-72
2021/01/01 14:19:16;;;;;;;;;;;4.90;99.90;;;;;;4755429;30;19958;-72
2021/01/01 14:21:43;;;;;;;;;;;4.80;99.90;;;;;;4755091;30;19930;-71
2021/01/01 14:24:14;;;;;;;;;;;4.60;99.90;;;;;;4739178;30;19945;-71
2021/01/01 14:26:40;;;;;;;;;;;4.60;99.90;;;;;;4739112;30;19926;-71
2021/01/01 14:29:06;;;;;;;;;;;4.70;99.90;;;;;;4755018;30;19927;-71
2021/01/01 14:31:31;;;;;;;;;;;4.70;99.90;;;;;;4754904;30;20062;-71
2021/01/01 14:33:57;;;;;;;;;;;4.60;99.90;;;;;;4754935;30;19985;-71
2021/01/01 14:36:32;;;;;;;;;;;4.60;99.90;;;;;;4754394;30;19930;-72
2021/01/01 14:38:58;;;;;;;;;;;4.60;99.90;;;;;;4738918;30;19932;-72
2021/01/01 14:41:24;;;;;;;;;;;4.70;99.90;;;;;;4754890;30;20008;-71
2021/01/01 14:43:49;;;;;;;;;;;4.70;99.90;;;;;;4739129;30;20440;-71
2021/01/01 14:46:19;;;;;;;;;;;4.70;99.90;;;;;;4754909;30;19980;-72
2021/01/01 14:48:45;;;;;;;;;;;4.60;99.90;;;;;;4754978;30;19926;-72
2021/01/01 14:51:11;;;;;;;;;;;4.50;99.90;;;;;;4754670;30;19922;-72
2021/01/01 14:53:36;;;;;;;;;;;4.50;99.90;;;;;;4754851;30;19926;-72
2021/01/01 14:56:02;;;;;;;;;;;4.50;99.90;;;;;;4754691;30;20005;-74
2021/01/01 14:58:27;;;;;;;;;;;4.40;99.90;;;;;;4754503;30;20017;-72
2021/01/01 15:00:59;;;;;;;;;;;4.30;99.90;;;;;;4738388;30;20009;-72
2021/01/01 15:03:25;;;;;;;;;;;4.30;99.90;;;;;;4738754;30;20423;-72
2021/01/01 15:05:57;;;;;;;;;;;4.20;99.90;;;;;;4754497;30;19918;-72
2021/01/01 15:08:22;;;;;;;;;;;4.10;99.90;;;;;;4754208;30;19976;-74
2021/01/01 15:10:48;;;;;;;;;;;4.00;99.90;;;;;;4754638;30;19930;-71
2021/01/01 15:13:14;;;;;;;;;;;3.90;99.90;;;;;;4754509;30;19926;-70
2021/01/01 15:15:39;;;;;;;;;;;4.00;99.90;;;;;;4754289;30;19922;-70
2021/01/01 15:18:05;;;;;;;;;;;4.20;99.90;;;;;;4754555;30;19962;-71
2021/01/01 15:20:31;;;;;;;;;;;4.20;99.90;;;;;;4754299;30;19923;-71
2021/01/01 15:22:56;;;;;;;;;;;4.20;99.90;;;;;;4754417;30;19922;-71
2021/01/01 15:25:22;;;;;;;;;;;4.20;99.90;;;;;;4754182;30;20379;-71
2021/01/01 15:27:47;;;;;;;;;;;4.30;99.90;;;;;;4754452;30;19934;-71
2021/01/01 15:30:13;;;;;;;;;;;4.40;99.90;;;;;;4753907;30;19933;-71
2021/01/01 15:32:39;;;;;;;;;;;4.20;99.90;;;;;;4738314;30;19930;-71
2021/01/01 15:35:05;;;;;;;;;;;4.00;99.90;;;;;;4753889;30;20012;-71
2021/01/01 15:37:31;;;;;;;;;;;3.90;99.90;;;;;;4754356;30;20290;-70
2021/01/01 15:39:56;;;;;;;;;;;3.90;99.90;;;;;;4754152;30;19972;-70
2021/01/01 15:42:22;;;;;;;;;;;3.80;99.90;;;;;;4753915;30;19922;-70
2021/01/01 15:44:48;;;;;;;;;;;3.70;99.90;;;;;;4753924;30;19926;-70
2021/01/01 15:47:14;;;;;;;;;;;3.60;99.90;;;;;;4753231;30;20370;-70
2021/01/01 15:49:40;;;;;;;;;;;3.60;99.90;;;;;;4753738;30;19970;-70
2021/01/01 15:52:05;;;;;;;;;;;3.60;99.90;;;;;;4753953;30;19957;-71
2021/01/01 15:54:31;;;;;;;;;;;3.40;99.90;;;;;;4754112;30;19922;-70
2021/01/01 15:56:57;;;;;;;;;;;3.40;99.90;;;;;;4738083;30;19930;-70
2021/01/01 15:59:22;;;;;;;;;;;3.50;99.90;;;;;;4753898;30;20009;-71
2021/01/01 16:01:48;;;;;;;;;;;3.30;99.90;;;;;;4753678;30;19926;-70
2021/01/01 16:04:14;;;;;;;;;;;3.20;99.90;;;;;;4737969;30;19922;-70
2021/01/01 16:06:49;;;;;;;;;;;3.40;99.90;;;;;;4753998;30;19979;-71
2021/01/01 16:09:15;;;;;;;;;;;3.20;99.90;;;;;;4753686;30;19927;-71
2021/01/01 16:11:41;;;;;;;;;;;3.20;99.90;;;;;;4753905;30;19922;-71
2021/01/01 16:14:07;;;;;;;;;;;3.10;99.90;;;;;;4754062;30;19986;-71
2021/01/01 16:16:39;;;;;;;;;;;3.00;99.90;;;;;;4753614;30;19923;-71
2021/01/01 16:19:05;;;;;;;;;;;3.10;99.90;;;;;;4754003;30;19928;-71
2021/01/01 16:21:41;;;;;;;;;;;3.00;99.90;;;;;;4753727;30;19922;-71
2021/01/01 16:24:07;;;;;;;;;;;3.00;99.90;;;;;;4753593;30;19953;-71
2021/01/01 16:26:44;;;;;;;;;;;2.80;99.90;;;;;;4753795;30;19922;-71
2021/01/01 16:29:11;;;;;;;;;;;2.80;99.90;;;;;;4753428;30;19979;-71
2021/01/01 16:31:46;;;;;;;;;;;2.80;99.90;;;;;;4753611;30;19975;-70
2021/01/01 16:34:15;;;;;;;;;;;3.00;99.90;;;;;;4753460;30;19922;-70
2021/01/01 16:36:50;;;;;;;;;;;2.90;99.90;;;;;;4753507;30;19922;-74
2021/01/01 16:39:21;;;;;;;;;;;2.90;99.90;;;;;;4737315;30;19956;-70
2021/01/01 16:41:58;;;;;;;;;;;2.70;99.90;;;;;;4742893;30;19933;-70
2021/01/01 16:44:47;;;;;;;;;;;2.70;99.90;;;;;;4751755;30;19929;-70
2021/01/01 16:47:25;;;;;;;;;;;2.70;99.90;;;;;;4763368;30;19918;-70
2021/01/01 16:49:51;;;;;;;;;;;2.80;99.90;;;;;;4763220;30;19926;-70
2021/01/01 16:52:30;;;;;;;;;;;2.60;99.90;;;;;;4752059;30;19917;-70
2021/01/01 16:55:05;;;;;;;;;;;2.70;99.90;;;;;;4748646;30;19953;-70
2021/01/01 16:57:31;;;;;;;;;;;2.80;99.90;;;;;;4744227;30;19922;-70
2021/01/01 16:59:59;;;;;;;;;;;2.80;99.90;;;;;;4746479;30;20327;-70
2021/01/01 17:02:27;;;;;;;;;;;2.80;99.90;;;;;;4757145;30;20013;-70
2021/01/01 17:05:03;;;;;;;;;;;2.70;99.90;;;;;;4749206;30;19918;-70
2021/01/01 17:07:33;;;;;;;;;;;2.60;99.90;;;;;;4785320;30;19960;-70
2021/01/01 17:17:13;;;;;;;;;;;2.50;99.90;;;;;;4681388;30;19964;-70
2021/01/01 17:22:53;;;;;;;;;;;2.70;99.90;;;;;;4691313;30;20370;-70
2021/01/01 17:25:38;;;;;;;;;;;2.40;99.90;;;;;;4745482;30;19922;-70
2021/01/01 17:34:50;;;;;;;;;;;;;;;;;;;;;
2021/01/01 17:37:47;;;;;;;;;;;;;;;;;;;;;
2021/01/01 17:40:45;;;;;;;;;;;;;;;;;;;;;
2021/01/01 17:49:53;;;;;;;;;;;1.70;99.90;;;;;;4693143;30;19931;-68
2021/01/01 17:53:09;;;;;;;;;;;1.60;99.90;;;;;;4678335;30;19976;-71
2021/01/01 18:11:56;;;;;;;;;;;1.40;99.90;;;;;;4635043;30;19938;-75
2021/01/01 18:21:07;;;;;;;;;;;;;;;;;;;;;
2021/01/01 18:27:32;;;;;;;;;;;1.20;99.90;;;;;;4668584;30;20165;-69
2021/01/01 18:29:57;;;;;;;;;;;1.00;99.90;;;;;;4687318;30;20000;-71
2021/01/01 18:36:09;;;;;;;;;;;;;;;;;;;;;
2021/01/01 18:38:41;;;;;;;;;;;1.20;99.90;;;;;;4737716;30;19922;-72
2021/01/01 18:41:08;;;;;;;;;;;1.00;99.90;;;;;;4740633;30;20337;-71
2021/01/01 18:43:57;;;;;;;;;;;1.00;99.90;;;;;;4743245;30;19927;-71
2021/01/01 18:46:27;;;;;;;;;;;1.00;99.90;;;;;;4746988;30;19918;-71
2021/01/01 18:48:56;;;;;;;;;;;1.00;99.90;;;;;;4745241;30;20012;-71
2021/01/01 18:51:42;;;;;;;;;;;0.90;99.90;;;;;;4745297;30;19948;-71
2021/01/01 18:54:08;;;;;;;;;;;0.90;99.90;;;;;;4772059;30;20016;-71
2021/01/01 18:56:42;;;;;;;;;;;0.90;99.90;;;;;;4750084;30;20004;-72
2021/01/01 18:59:18;;;;;;;;;;;0.80;99.90;;;;;;4745500;30;19918;-72
2021/01/01 19:01:54;;;;;;;;;;;0.80;99.90;;;;;;4773779;30;20351;-71
2021/01/01 19:04:35;;;;;;;;;;;0.80;99.90;;;;;;4761880;30;20402;-72
2021/01/01 19:07:11;;;;;;;;;;;0.80;99.90;;;;;;4748617;30;20355;-72
2021/01/01 19:09:50;;;;;;;;;;;0.80;99.90;;;;;;4744214;30;20000;-71
2021/01/01 19:12:16;;;;;;;;;;;0.90;99.90;;;;;;4752208;30;19924;-72
2021/01/01 19:14:51;;;;;;;;;;;0.80;99.90;;;;;;4754897;30;20008;-72
2021/01/01 19:17:18;;;;;;;;;;;0.80;99.90;;;;;;4748581;30;20363;-72
2021/01/01 19:19:45;;;;;;;;;;;0.80;99.90;;;;;;4769276;30;19924;-71
2021/01/01 19:22:21;;;;;;;;;;;0.80;99.90;;;;;;4748212;30;19929;-72
2021/01/01 19:24:52;;;;;;;;;;;0.90;99.90;;;;;;4763103;30;19926;-72
2021/01/01 19:27:36;;;;;;;;;;;0.90;99.90;;;;;;4737361;30;19922;-71
2021/01/01 19:30:05;;;;;;;;;;;0.70;99.90;;;;;;4771979;30;19926;-72
2021/01/01 19:32:38;;;;;;;;;;;0.80;99.90;;;;;;4764043;30;19922;-71
2021/01/01 19:35:09;;;;;;;;;;;0.80;99.90;;;;;;4780497;30;19918;-71
2021/01/01 19:37:54;;;;;;;;;;;0.70;99.90;;;;;;4771381;30;20058;-71
2021/01/01 19:40:45;;;;;;;;;;;0.60;99.90;;;;;;4753704;30;20008;-71
2021/01/01 19:43:27;;;;;;;;;;;0.50;99.90;;;;;;4753840;30;19924;-71
2021/01/01 19:46:33;;;;;;;;;;;0.50;99.90;;;;;;4753433;30;19970;-71
2021/01/01 19:49:23;;;;;;;;;;;0.50;99.90;;;;;;4715677;30;19926;-71
2021/01/01 19:52:04;;;;;;;;;;;0.50;99.90;;;;;;4731417;30;19931;-71
2021/01/01 20:01:22;;;;;;;;;;;0.40;99.90;;;;;;4769107;30;20285;-70
2021/01/01 20:04:07;;;;;;;;;;;0.30;99.90;;;;;;4752923;30;19971;-70
2021/01/01 20:07:05;;;;;;;;;;;0.30;99.90;;;;;;4752929;30;19924;-70
2021/01/01 20:09:47;;;;;;;;;;;0.20;99.90;;;;;;4738116;30;20363;-70
2021/01/01 20:12:49;;;;;;;;;;;0.20;99.90;;;;;;4753762;30;19922;-70
2021/01/01 20:15:32;;;;;;;;;;;0.10;99.90;;;;;;4751044;30;20401;-70
2021/01/01 21:00:54;;;;;;;;;;;;;;;;;;;;;
2021/01/01 21:13:38;;;;;;;;;;;;;;;;;;;;;
2021/01/01 21:20:13;;;;;;;;;;;-0.60;99.90;;;;;;4716786;30;19962;-70
2021/01/01 21:26:15;;;;;;;;;;;-0.70;99.90;;;;;;4716830;30;19961;-70
2021/01/01 21:32:42;;;;;;;;;;;-0.60;99.90;;;;;;4708326;30;20411;-70
2021/01/01 21:53:54;;;;;;;;;;;-0.50;99.90;;;;;;4732707;30;20005;-70
2021/01/01 21:56:48;;;;;;;;;;;-0.60;99.90;;;;;;4715901;30;19919;-70
2021/01/01 21:59:31;;;;;;;;;;;-0.60;99.90;;;;;;4710159;30;19992;-70
2021/01/01 22:08:30;;;;;;;;;;;-0.60;99.90;;;;;;4664294;30;19923;-70
2021/01/01 22:11:31;;;;;;;;;;;-0.60;99.90;;;;;;4648762;30;19932;-70
2021/01/01 22:23:40;;;;;;;;;;;-0.90;99.90;;;;;;4607030;31;19997;-70
2021/01/01 22:26:39;;;;;;;;;;;-1.00;99.90;;;;;;4636216;30;20323;-70
2021/01/01 22:32:26;;;;;;;;;;;-1.00;99.90;;;;;;4623661;31;20361;-70
2021/01/01 22:35:09;;;;;;;;;;;-1.10;99.90;;;;;;4673095;30;19985;-70
2021/01/01 22:37:58;;;;;;;;;;;-1.10;99.90;;;;;;4682073;30;20396;-69
2021/01/01 22:41:03;;;;;;;;;;;;;;;;;;;;;
2021/01/01 22:47:13;;;;;;;;;;;-1.10;99.90;;;;;;4704905;30;20000;-69
2021/01/01 22:50:05;;;;;;;;;;;-1.10;99.90;;;;;;4729499;30;19922;-70
2021/01/01 22:56:19;;;;;;;;;;;;;;;;;;;;;
2021/01/01 23:02:19;;;;;;;;;;;-1.00;99.90;;;;;;4704779;30;20377;-69
2021/01/01 23:08:18;;;;;;;;;;;-1.10;99.90;;;;;;4709499;30;19960;-69
2021/01/01 23:27:03;;;;;;;;;;;;;;;;;;;;;
2021/01/01 23:29:59;;;;;;;;;;;;;;;;;;;;;
2021/01/01 23:32:58;;;;;;;;;;;-1.20;99.90;;;;;;4729613;30;19919;-70
2021/01/01 23:51:07;;;;;;;;;;;-1.30;99.90;;;;;;4740068;30;20079;-71
2021/01/01 23:54:17;;;;;;;;;;;-1.30;99.90;;;;;;4717189;30;19918;-71
